Time;durP1;ratioP1;P1;durP2;ratioP2;P2;SDS_P1;SDS_P2;PMS_P1;PMS_P2;Temp;Humidity;BMP_temperature;BMP_pressure;BME280_temperature;BME280_humidity;BME280_pressure;Samples;Min_cycle;Max_cycle;Signal;HPM_P1;HPM_P2
2024/02/08 00:00:29;;;;;;;5.97;0.67;;;9.70;99.90;;;;;;5061314;28;20486;-66
2024/02/08 00:02:57;;;;;;;6.43;1.00;;;9.70;99.90;;;;;;5064608;28;20439;-65
2024/02/08 00:05:27;;;;;;;6.17;0.70;;;9.70;99.90;;;;;;5061389;28;20458;-65
2024/02/08 00:07:55;;;;;;;6.10;0.60;;;9.80;99.90;;;;;;5064044;28;20452;-66
2024/02/08 00:10:23;;;;;;;6.30;1.13;;;9.80;99.90;;;;;;5062944;28;20446;-66
2024/02/08 00:12:51;;;;;;;6.70;0.70;;;9.80;99.90;;;;;;5062093;28;20454;-66
2024/02/08 00:15:20;;;;;;;6.67;0.80;;;9.80;99.90;;;;;;5064076;28;20536;-65
2024/02/08 00:17:48;;;;;;;6.10;0.63;;;9.80;99.90;;;;;;5063736;28;21439;-66
2024/02/08 00:20:16;;;;;;;6.37;0.70;;;9.90;99.90;;;;;;5063549;28;20443;-65
2024/02/08 00:22:46;;;;;;;7.10;0.80;;;9.90;99.90;;;;;;5063508;28;20466;-67
2024/02/08 00:25:14;;;;;;;6.27;0.80;;;9.90;99.90;;;;;;5061236;28;20450;-66
2024/02/08 00:27:42;;;;;;;6.70;0.80;;;9.80;99.90;;;;;;5060955;28;20521;-68
2024/02/08 00:30:10;;;;;;;5.90;0.60;;;9.90;99.90;;;;;;5060623;28;20461;-67
2024/02/08 00:32:38;;;;;;;6.80;0.60;;;9.90;99.90;;;;;;5065971;28;20473;-65
2024/02/08 00:35:07;;;;;;;6.37;0.70;;;9.90;99.90;;;;;;5066628;28;20480;-64
2024/02/08 00:37:38;;;;;;;6.30;0.50;;;9.90;99.90;;;;;;5061050;28;20502;-65
2024/02/08 00:40:11;;;;;;;5.87;0.50;;;9.90;99.90;;;;;;5065083;28;20556;-67
2024/02/08 00:42:38;;;;;;;6.10;0.50;;;9.90;99.90;;;;;;5069704;28;20466;-67
2024/02/08 00:45:07;;;;;;;6.00;0.50;;;10.00;99.90;;;;;;5082446;28;20517;-65
2024/02/08 00:47:36;;;;;;;6.10;0.60;;;10.00;99.90;;;;;;5072009;28;20470;-66
2024/02/08 00:50:05;;;;;;;6.20;0.80;;;10.10;99.90;;;;;;5063231;28;20524;-66
2024/02/08 00:52:33;;;;;;;5.90;0.63;;;10.00;99.90;;;;;;5062899;28;20495;-67
2024/02/08 00:55:01;;;;;;;6.10;0.67;;;10.00;99.90;;;;;;5063396;28;21059;-67
2024/02/08 00:57:32;;;;;;;8.30;0.70;;;10.00;99.90;;;;;;5062118;28;20451;-67
2024/02/08 01:00:01;;;;;;;6.30;0.50;;;10.00;99.90;;;;;;5060641;28;20439;-66
2024/02/08 01:02:29;;;;;;;7.17;0.60;;;10.10;99.90;;;;;;5075408;28;20465;-65
2024/02/08 01:04:58;;;;;;;5.97;0.50;;;10.10;99.90;;;;;;5067506;28;20493;-65
2024/02/08 01:07:27;;;;;;;5.90;0.57;;;10.10;99.90;;;;;;5065230;28;20621;-66
2024/02/08 01:09:55;;;;;;;5.80;0.40;;;10.10;99.90;;;;;;5064890;28;20450;-65
2024/02/08 01:12:23;;;;;;;5.73;0.47;;;10.10;99.90;;;;;;5063852;28;20480;-66
2024/02/08 01:14:53;;;;;;;8.33;0.57;;;10.20;99.90;;;;;;5064496;28;20442;-66
2024/02/08 01:17:20;;;;;;;6.00;0.60;;;10.20;99.90;;;;;;5064846;28;20442;-65
2024/02/08 01:19:50;;;;;;;5.87;0.50;;;10.20;99.90;;;;;;5064323;28;20467;-66
2024/02/08 01:22:19;;;;;;;5.80;0.50;;;10.10;99.90;;;;;;5063696;28;20472;-67
2024/02/08 01:24:48;;;;;;;6.30;0.53;;;10.10;99.90;;;;;;5064715;28;20451;-66
2024/02/08 01:27:20;;;;;;;5.83;0.50;;;10.10;99.90;;;;;;5064632;28;20896;-66
2024/02/08 01:29:49;;;;;;;5.80;0.40;;;10.20;99.90;;;;;;5064635;28;20496;-65
2024/02/08 01:32:18;;;;;;;6.63;0.47;;;10.20;99.90;;;;;;5062769;28;20474;-65
2024/02/08 01:34:46;;;;;;;5.90;0.70;;;10.20;99.90;;;;;;5064128;28;20454;-66
2024/02/08 01:37:14;;;;;;;6.40;0.57;;;10.30;99.90;;;;;;5063717;28;20442;-66
2024/02/08 01:39:43;;;;;;;5.70;0.30;;;10.20;99.90;;;;;;5064236;28;20487;-64
2024/02/08 01:42:13;;;;;;;6.40;0.50;;;10.30;99.90;;;;;;5063168;28;20467;-66
2024/02/08 01:44:46;;;;;;;6.00;0.60;;;10.30;99.90;;;;;;5063490;28;21205;-65
2024/02/08 01:47:17;;;;;;;5.70;0.40;;;10.20;99.90;;;;;;5064174;28;20993;-66
2024/02/08 01:49:47;;;;;;;5.87;0.40;;;10.20;99.90;;;;;;5066270;28;20447;-65
2024/02/08 01:52:18;;;;;;;5.80;0.40;;;10.20;99.90;;;;;;5065510;28;20510;-65
2024/02/08 01:54:49;;;;;;;6.10;0.50;;;10.30;99.90;;;;;;5065873;28;20463;-66
2024/02/08 01:57:17;;;;;;;6.10;0.40;;;10.30;99.90;;;;;;5066482;28;20458;-66
2024/02/08 01:59:52;;;;;;;5.80;0.50;;;10.30;99.90;;;;;;5066339;28;21058;-65
2024/02/08 02:02:22;;;;;;;5.77;0.40;;;10.30;99.90;;;;;;5065804;28;20474;-66
2024/02/08 02:04:51;;;;;;;5.90;0.50;;;10.20;99.90;;;;;;5065670;28;20896;-65
2024/02/08 02:07:20;;;;;;;5.80;0.40;;;10.30;99.90;;;;;;5066285;28;20866;-64
2024/02/08 02:09:48;;;;;;;5.73;0.30;;;10.30;99.90;;;;;;5066114;28;20538;-65
2024/02/08 02:12:18;;;;;;;5.83;0.53;;;10.30;99.90;;;;;;5064508;28;20807;-67
2024/02/08 02:14:47;;;;;;;5.80;0.33;;;10.30;99.90;;;;;;5065312;28;20943;-65
2024/02/08 02:17:18;;;;;;;5.87;0.40;;;10.30;99.90;;;;;;5066218;28;21018;-65
2024/02/08 02:19:47;;;;;;;5.80;0.30;;;10.30;99.90;;;;;;5066111;28;20863;-66
2024/02/08 02:22:19;;;;;;;5.93;0.43;;;10.40;99.90;;;;;;5065057;28;20473;-65
2024/02/08 02:24:48;;;;;;;6.00;0.50;;;10.30;99.90;;;;;;5066105;28;20515;-66
2024/02/08 02:27:17;;;;;;;5.73;0.30;;;10.40;99.90;;;;;;5065504;28;21229;-67
2024/02/08 02:29:52;;;;;;;5.93;0.43;;;10.30;99.90;;;;;;5066146;28;21204;-65
2024/02/08 02:32:21;;;;;;;5.90;0.40;;;10.40;99.90;;;;;;5064732;28;20464;-64
2024/02/08 02:34:52;;;;;;;5.83;0.40;;;10.40;99.90;;;;;;5064366;28;20506;-65
2024/02/08 02:37:22;;;;;;;6.10;0.40;;;10.40;99.90;;;;;;5064832;28;20439;-66
2024/02/08 02:39:52;;;;;;;5.80;0.40;;;10.40;99.90;;;;;;5064679;28;20486;-64
2024/02/08 02:42:20;;;;;;;5.80;0.40;;;10.40;99.90;;;;;;5063310;28;20477;-65
2024/02/08 02:44:48;;;;;;;6.37;0.60;;;10.40;99.90;;;;;;5067259;28;20486;-66
2024/02/08 02:47:25;;;;;;;5.70;0.40;;;10.30;99.90;;;;;;5068170;28;20483;-66
2024/02/08 02:49:56;;;;;;;6.00;0.50;;;10.40;99.90;;;;;;5068343;28;20439;-65
2024/02/08 02:52:26;;;;;;;5.93;0.43;;;10.40;99.90;;;;;;5067090;28;20458;-66
2024/02/08 02:54:54;;;;;;;5.80;0.33;;;10.30;99.90;;;;;;5067534;28;20476;-67
2024/02/08 02:57:22;;;;;;;5.93;0.50;;;10.40;99.90;;;;;;5069089;28;20549;-65
2024/02/08 02:59:49;;;;;;;5.97;0.33;;;10.40;99.90;;;;;;5068491;28;20481;-65
2024/02/08 03:02:28;;;;;;;6.57;0.50;;;10.40;99.90;;;;;;5069630;28;20981;-67
2024/02/08 03:04:56;;;;;;;5.70;0.30;;;10.40;99.90;;;;;;5069837;28;20442;-67
2024/02/08 03:07:28;;;;;;;5.87;0.40;;;10.40;99.90;;;;;;5070475;28;20446;-68
2024/02/08 03:09:56;;;;;;;6.37;0.60;;;10.40;99.90;;;;;;5070293;28;20443;-67
2024/02/08 03:12:24;;;;;;;5.97;0.40;;;10.40;99.90;;;;;;5069423;28;20476;-67
2024/02/08 03:14:59;;;;;;;5.80;0.40;;;10.40;99.90;;;;;;5070113;28;20448;-66
2024/02/08 03:17:27;;;;;;;5.90;0.40;;;10.40;99.90;;;;;;5070250;28;20446;-66
2024/02/08 03:19:55;;;;;;;6.30;0.60;;;10.40;99.90;;;;;;5069821;28;20474;-67
2024/02/08 03:22:23;;;;;;;5.77;0.40;;;10.40;99.90;;;;;;5069453;28;20516;-67
2024/02/08 03:24:53;;;;;;;5.83;0.40;;;10.50;99.90;;;;;;5070167;28;20541;-67
2024/02/08 03:27:24;;;;;;;5.90;0.40;;;10.50;99.90;;;;;;5070276;28;20446;-66
2024/02/08 03:29:53;;;;;;;6.00;0.40;;;10.50;99.90;;;;;;5069378;28;20441;-66
2024/02/08 03:32:23;;;;;;;5.97;0.60;;;10.50;99.90;;;;;;5067790;28;20529;-66
2024/02/08 03:34:53;;;;;;;5.90;0.47;;;10.60;99.90;;;;;;5068130;28;20451;-67
2024/02/08 03:37:21;;;;;;;5.90;0.40;;;10.50;99.90;;;;;;5068961;28;20485;-67
2024/02/08 03:39:50;;;;;;;5.77;0.40;;;10.50;99.90;;;;;;5069008;28;20538;-67
2024/02/08 03:42:20;;;;;;;5.70;0.30;;;10.50;99.90;;;;;;5068069;28;20478;-66
2024/02/08 03:44:48;;;;;;;5.97;0.50;;;10.60;99.90;;;;;;5068578;28;20489;-67
2024/02/08 03:47:17;;;;;;;5.77;0.40;;;10.60;99.90;;;;;;5068568;28;20450;-66
2024/02/08 03:49:51;;;;;;;6.77;0.40;;;10.60;99.90;;;;;;5068879;28;20443;-67
2024/02/08 03:52:19;;;;;;;5.80;0.40;;;10.60;99.90;;;;;;5067411;28;20549;-67
2024/02/08 03:54:47;;;;;;;5.70;0.30;;;10.60;99.90;;;;;;5067496;28;20863;-66
2024/02/08 03:57:15;;;;;;;5.80;0.40;;;10.60;99.90;;;;;;5068519;28;20447;-68
2024/02/08 03:59:44;;;;;;;5.90;0.30;;;10.70;99.90;;;;;;5067635;28;20913;-66
2024/02/08 04:02:13;;;;;;;5.90;0.50;;;10.60;99.90;;;;;;5067709;28;20459;-66
2024/02/08 04:04:53;;;;;;;5.83;0.40;;;10.70;99.90;;;;;;5068164;28;20450;-66
2024/02/08 04:07:22;;;;;;;5.83;0.40;;;10.60;99.90;;;;;;5068583;28;20469;-67
2024/02/08 04:09:56;;;;;;;5.73;0.30;;;10.60;99.90;;;;;;5068658;28;20921;-66
2024/02/08 04:54:16;;;;;;;6.20;0.40;;;9.80;99.90;;;;;;5066689;28;20437;-68
2024/02/08 04:56:46;;;;;;;6.97;0.50;;;9.80;99.90;;;;;;5066865;28;21028;-66
2024/02/08 04:59:20;;;;;;;5.90;0.40;;;9.80;99.90;;;;;;5067674;28;20446;-66
2024/02/08 05:01:53;;;;;;;6.60;0.47;;;9.80;99.90;;;;;;5067563;28;20489;-67
2024/02/08 05:04:25;;;;;;;6.30;0.70;;;9.80;99.90;;;;;;5067738;28;20447;-67
2024/02/08 05:06:55;;;;;;;6.20;0.57;;;9.80;99.90;;;;;;5066970;28;20449;-67
2024/02/08 05:09:30;;;;;;;5.80;0.40;;;9.80;99.90;;;;;;5068183;28;20445;-67
2024/02/08 05:11:59;;;;;;;6.23;0.60;;;9.80;99.90;;;;;;5067338;28;20472;-67
2024/02/08 05:14:35;;;;;;;6.23;0.50;;;9.80;99.90;;;;;;5067165;28;20445;-66
2024/02/08 05:17:03;;;;;;;6.03;0.50;;;9.80;99.90;;;;;;5067940;28;20990;-66
2024/02/08 05:19:33;;;;;;;6.00;0.40;;;9.70;99.90;;;;;;5068130;28;20448;-66
2024/02/08 05:22:02;;;;;;;6.53;0.40;;;9.70;99.90;;;;;;5067502;28;20583;-66
2024/02/08 05:24:34;;;;;;;6.20;0.40;;;9.60;99.90;;;;;;5067469;28;20476;-67
2024/02/08 05:27:05;;;;;;;6.20;0.40;;;9.50;99.90;;;;;;5066990;28;20530;-67
2024/02/08 05:29:33;;;;;;;6.40;0.50;;;9.50;99.90;;;;;;5066781;28;20441;-67
2024/02/08 05:32:01;;;;;;;6.37;0.47;;;9.50;99.90;;;;;;5065865;28;20474;-67
2024/02/08 05:34:29;;;;;;;6.30;0.60;;;9.40;99.90;;;;;;5066217;28;21071;-67
2024/02/08 05:37:02;;;;;;;6.00;0.50;;;9.40;99.90;;;;;;5066781;28;20437;-66
2024/02/08 05:39:31;;;;;;;6.10;0.40;;;9.50;99.90;;;;;;5066502;28;20428;-67
2024/02/08 05:41:59;;;;;;;6.30;0.60;;;9.50;99.90;;;;;;5064855;28;20569;-67
2024/02/08 05:44:29;;;;;;;6.87;0.50;;;9.50;99.90;;;;;;5065823;28;20453;-67
2024/02/08 05:47:06;;;;;;;6.50;0.50;;;9.50;99.90;;;;;;5066454;28;20498;-66
2024/02/08 05:49:34;;;;;;;6.30;0.60;;;9.50;99.90;;;;;;5066594;28;20446;-65
2024/02/08 05:52:06;;;;;;;5.97;0.43;;;9.50;99.90;;;;;;5065332;28;20496;-66
2024/02/08 05:54:39;;;;;;;6.27;0.77;;;9.40;99.90;;;;;;5065775;28;20446;-66
2024/02/08 05:57:10;;;;;;;6.30;0.60;;;9.40;99.90;;;;;;5065829;28;20493;-67
2024/02/08 05:59:38;;;;;;;6.80;0.70;;;9.40;99.90;;;;;;5067037;28;20936;-66
2024/02/08 06:02:14;;;;;;;6.50;0.60;;;9.40;99.90;;;;;;5066428;28;20550;-66
2024/02/08 06:04:50;;;;;;;6.60;0.50;;;9.40;99.90;;;;;;5066951;28;20979;-66
2024/02/08 06:07:21;;;;;;;6.30;0.57;;;9.40;99.90;;;;;;5066513;28;20444;-68
2024/02/08 06:10:07;;;;;;;6.17;0.50;;;9.40;99.90;;;;;;5067392;28;20448;-67
2024/02/08 06:12:42;;;;;;;6.23;0.60;;;9.40;99.90;;;;;;5066070;28;20579;-67
2024/02/08 06:15:21;;;;;;;6.10;0.50;;;9.40;99.90;;;;;;5066988;28;20440;-65
2024/02/08 06:17:57;;;;;;;6.20;0.50;;;9.40;99.90;;;;;;5066787;28;20454;-66
2024/02/08 06:20:33;;;;;;;8.23;0.63;;;9.40;99.90;;;;;;5066322;28;21059;-67
2024/02/08 06:23:16;;;;;;;6.30;0.70;;;9.30;99.90;;;;;;5066271;28;20532;-65
2024/02/08 06:25:46;;;;;;;6.10;0.53;;;9.30;99.90;;;;;;5065730;28;21031;-66
2024/02/08 06:28:13;;;;;;;7.10;0.50;;;9.30;99.90;;;;;;5065932;28;20552;-65
2024/02/08 06:30:46;;;;;;;7.40;0.60;;;9.30;99.90;;;;;;5064790;28;20535;-66
2024/02/08 06:33:25;;;;;;;6.60;0.70;;;9.30;99.90;;;;;;5066286;28;20470;-66
2024/02/08 06:35:56;;;;;;;6.30;0.60;;;9.30;99.90;;;;;;5067129;28;20440;-66
2024/02/08 06:38:40;;;;;;;6.37;0.70;;;9.30;99.90;;;;;;5067114;28;20442;-67
2024/02/08 06:41:23;;;;;;;7.20;0.60;;;9.30;99.90;;;;;;5066229;28;20488;-65
2024/02/08 06:43:57;;;;;;;6.90;0.80;;;9.30;99.90;;;;;;5066087;28;20448;-66
2024/02/08 06:46:47;;;;;;;6.63;0.70;;;9.40;99.90;;;;;;5063409;28;20987;-66
2024/02/08 07:41:53;;;;;;;6.30;0.50;;;9.60;99.90;;;;;;5060384;28;20491;-65
2024/02/08 07:44:30;;;;;;;6.17;0.50;;;9.60;99.90;;;;;;5066282;28;21109;-67
2024/02/08 07:47:03;;;;;;;6.37;0.50;;;9.60;99.90;;;;;;5064216;28;20453;-65
2024/02/08 07:49:42;;;;;;;6.70;0.70;;;9.60;99.90;;;;;;5068529;28;20442;-67
2024/02/08 07:52:19;;;;;;;6.60;0.60;;;9.70;99.90;;;;;;5068522;28;20491;-65
2024/02/08 07:54:56;;;;;;;6.73;0.83;;;9.70;99.90;;;;;;5062808;28;20529;-67
2024/02/08 07:57:26;;;;;;;6.60;0.60;;;9.70;99.90;;;;;;5069559;28;20449;-66
2024/02/08 07:59:59;;;;;;;7.13;0.63;;;9.70;99.90;;;;;;5069699;28;20536;-66
2024/02/08 08:02:29;;;;;;;6.20;0.60;;;9.70;99.90;;;;;;5067206;28;20490;-66
2024/02/08 08:04:57;;;;;;;6.10;0.40;;;9.80;99.90;;;;;;5067722;28;20848;-66
2024/02/08 08:07:25;;;;;;;6.17;0.53;;;9.80;99.90;;;;;;5068019;28;20529;-66
2024/02/08 08:09:59;;;;;;;6.30;0.60;;;9.90;99.90;;;;;;5068504;28;20480;-66
2024/02/08 08:12:30;;;;;;;6.40;0.60;;;9.90;99.90;;;;;;5067335;28;20916;-66
2024/02/08 08:17:43;;;;;;;6.60;0.63;;;10.00;99.90;;;;;;5067498;28;21228;-67
2024/02/08 08:20:50;;;;;;;6.30;0.57;;;10.00;99.90;;;;;;5067836;28;20458;-66
2024/02/08 08:23:07;;;;;;;6.30;0.60;;;10.10;99.90;;;;;;5063523;28;20485;-65
2024/02/08 08:28:52;;;;;;;6.47;0.53;;;10.20;99.90;;;;;;5074942;27;20549;-66
2024/02/08 08:31:35;;;;;;;8.23;0.63;;;10.40;99.90;;;;;;5074253;27;20555;-65
2024/02/08 08:36:57;;;;;;;6.50;0.50;;;10.60;99.90;;;;;;5064331;27;20443;-66
2024/02/08 08:42:16;;;;;;;6.10;0.53;;;10.60;99.90;;;;;;5076714;27;21312;-66
2024/02/08 08:44:57;;;;;;;6.10;0.50;;;10.60;99.90;;;;;;5072467;27;20463;-66
2024/02/08 08:47:27;;;;;;;6.30;0.60;;;10.60;99.90;;;;;;5057672;27;20839;-70
2024/02/08 08:49:56;;;;;;;6.60;0.60;;;10.70;99.90;;;;;;5069373;27;20448;-68
2024/02/08 08:52:27;;;;;;;7.27;0.50;;;10.80;99.90;;;;;;5059850;27;20463;-67
2024/02/08 08:55:10;;;;;;;6.80;0.70;;;10.90;99.90;;;;;;5064773;27;20436;-65
2024/02/08 08:57:38;;;;;;;6.50;0.60;;;10.90;99.90;;;;;;5056031;27;20559;-77
2024/02/08 09:00:11;;;;;;;6.30;0.60;;;11.00;99.90;;;;;;5058086;27;20611;-68
2024/02/08 09:02:40;;;;;;;6.50;0.50;;;11.10;99.90;;;;;;5055619;27;20492;-66
2024/02/08 09:05:17;;;;;;;6.17;0.43;;;11.20;99.90;;;;;;5058089;27;20469;-67
2024/02/08 09:07:46;;;;;;;6.60;0.50;;;11.20;99.90;;;;;;5055766;27;20478;-67
2024/02/08 09:10:15;;;;;;;6.10;0.50;;;11.00;99.90;;;;;;5054712;27;20459;-71
2024/02/08 09:12:58;;;;;;;6.00;0.47;;;10.90;99.90;;;;;;5056147;27;20459;-64
2024/02/08 09:15:28;;;;;;;7.00;0.60;;;10.90;99.90;;;;;;5052597;27;21098;-66
2024/02/08 09:17:58;;;;;;;6.20;0.50;;;10.80;99.90;;;;;;5057755;27;20470;-67
2024/02/08 09:20:28;;;;;;;6.67;0.53;;;10.80;99.90;;;;;;5056749;27;20527;-67
2024/02/08 09:23:01;;;;;;;6.10;0.60;;;10.80;99.90;;;;;;5074446;27;20458;-66
2024/02/08 09:25:32;;;;;;;6.00;0.57;;;10.80;99.90;;;;;;5069163;27;21362;-66
2024/02/08 09:28:23;;;;;;;6.10;0.40;;;10.80;99.90;;;;;;5073776;27;20569;-66
2024/02/08 09:30:56;;;;;;;6.20;0.57;;;10.90;99.90;;;;;;5061641;27;20899;-67
2024/02/08 09:33:31;;;;;;;6.30;0.60;;;10.90;99.90;;;;;;5071368;27;20451;-65
2024/02/08 09:36:00;;;;;;;6.80;0.53;;;11.00;99.90;;;;;;5073441;27;20472;-67
2024/02/08 09:38:28;;;;;;;6.70;0.60;;;11.00;99.90;;;;;;5059064;27;20552;-68
2024/02/08 09:40:59;;;;;;;6.20;0.53;;;11.10;99.90;;;;;;5060632;27;20466;-66
2024/02/08 09:43:29;;;;;;;6.00;0.43;;;11.20;99.90;;;;;;5057180;27;20469;-67
2024/02/08 09:46:10;;;;;;;6.60;0.60;;;11.30;99.90;;;;;;5060393;27;20459;-66
2024/02/08 09:48:46;;;;;;;6.27;0.60;;;11.40;99.90;;;;;;5054231;27;20516;-67
2024/02/08 09:51:23;;;;;;;5.97;0.43;;;11.50;99.90;;;;;;5057991;27;20473;-66
2024/02/08 09:53:54;;;;;;;5.90;0.30;;;11.60;99.90;;;;;;5047051;27;20850;-67
2024/02/08 09:56:29;;;;;;;6.00;0.40;;;11.60;99.90;;;;;;5043115;27;20978;-68
2024/02/08 09:59:02;;;;;;;6.20;0.50;;;11.70;99.90;;;;;;5049143;27;20494;-67
2024/02/08 10:01:43;;;;;;;6.50;0.50;;;11.70;99.90;;;;;;5054830;27;20472;-67
2024/02/08 10:04:25;;;;;;;6.10;0.40;;;11.60;99.90;;;;;;5058285;27;21210;-67
2024/02/08 10:07:05;;;;;;;6.50;0.70;;;11.70;99.90;;;;;;5045157;27;20475;-66
2024/02/08 10:09:40;;;;;;;6.83;0.50;;;11.70;99.90;;;;;;5057821;27;20443;-66
2024/02/08 10:12:18;;;;;;;9.13;0.63;;;11.80;99.90;;;;;;5059524;27;21160;-66
2024/02/08 10:14:54;;;;;;;6.33;0.57;;;11.80;99.90;;;;;;5052469;27;20481;-67
2024/02/08 10:17:24;;;;;;;6.03;0.50;;;11.90;99.90;;;;;;5055620;27;21070;-66
2024/02/08 10:22:42;;;;;;;7.17;0.50;;;12.00;99.90;;;;;;5054132;27;20469;-68
2024/02/08 10:28:01;;;;;;;6.00;0.50;;;12.10;99.90;;;;;;5053185;27;20483;-68
2024/02/08 10:30:29;;;;;;;5.90;0.47;;;12.10;99.90;;;;;;5057400;27;20467;-68
2024/02/08 10:33:04;;;;;;;6.03;0.50;;;12.10;99.90;;;;;;5071072;27;20470;-69
2024/02/08 10:35:39;;;;;;;6.10;0.50;;;12.10;99.90;;;;;;5056771;27;20448;-68
2024/02/08 10:38:25;;;;;;;6.27;0.60;;;12.10;99.90;;;;;;5057571;27;20485;-68
2024/02/08 10:40:55;;;;;;;6.00;0.60;;;12.20;99.90;;;;;;5040866;27;20497;-69
2024/02/08 10:43:25;;;;;;;5.93;0.40;;;12.30;99.90;;;;;;5046555;27;20439;-68
2024/02/08 10:46:02;;;;;;;7.13;0.43;;;12.40;99.90;;;;;;5047871;27;20529;-69
2024/02/08 10:48:32;;;;;;;6.10;0.50;;;12.40;99.90;;;;;;5055591;27;20491;-68
2024/02/08 10:51:02;;;;;;;6.00;0.40;;;12.40;99.90;;;;;;5042879;27;20562;-68
2024/02/08 10:53:45;;;;;;;7.03;0.57;;;12.30;99.90;;;;;;5055705;27;20506;-69
2024/02/08 10:56:18;;;;;;;6.00;0.50;;;12.10;99.90;;;;;;5058878;27;20521;-68
2024/02/08 10:58:55;;;;;;;6.20;0.40;;;11.90;99.90;;;;;;5055034;27;20528;-68
2024/02/08 11:01:37;;;;;;;6.10;0.40;;;11.60;99.90;;;;;;5056956;27;20471;-67
2024/02/08 11:04:17;;;;;;;6.10;0.50;;;11.50;99.90;;;;;;5050663;27;20514;-68
2024/02/08 11:06:55;;;;;;;6.03;0.50;;;11.30;99.90;;;;;;5057272;27;20447;-68
2024/02/08 11:09:27;;;;;;;5.90;0.50;;;11.30;99.90;;;;;;5057258;27;20479;-68
2024/02/08 11:12:03;;;;;;;6.07;0.60;;;11.30;99.90;;;;;;5048583;27;20818;-68
2024/02/08 11:14:40;;;;;;;6.00;0.40;;;11.20;99.90;;;;;;5058676;27;20512;-69
2024/02/08 11:17:20;;;;;;;5.90;0.50;;;11.30;99.90;;;;;;5059704;27;20511;-68
2024/02/08 11:19:56;;;;;;;6.33;0.70;;;11.30;99.90;;;;;;5057839;27;20440;-68
2024/02/08 11:22:35;;;;;;;6.00;0.50;;;11.40;99.90;;;;;;5056809;27;20543;-68
2024/02/08 11:27:59;;;;;;;6.30;0.50;;;11.60;99.90;;;;;;5084518;28;20589;-68
2024/02/08 11:30:35;;;;;;;5.90;0.40;;;11.80;99.90;;;;;;5082157;28;21080;-67
2024/02/08 11:33:04;;;;;;;7.93;0.63;;;11.90;99.90;;;;;;5078120;28;20455;-68
2024/02/08 11:35:35;;;;;;;6.80;0.50;;;12.00;99.90;;;;;;5075755;28;20438;-68
2024/02/08 11:38:11;;;;;;;6.30;0.50;;;12.10;99.90;;;;;;5081725;28;21013;-68
2024/02/08 11:40:41;;;;;;;5.97;0.47;;;12.20;99.90;;;;;;5076456;28;20442;-68
2024/02/08 11:43:23;;;;;;;6.13;0.60;;;12.30;99.90;;;;;;5081745;28;20434;-69
2024/02/08 11:45:53;;;;;;;6.13;0.57;;;12.40;99.90;;;;;;5078217;28;20837;-69
2024/02/08 11:48:29;;;;;;;6.40;0.90;;;12.40;99.90;;;;;;5077686;28;20921;-69
2024/02/08 11:50:59;;;;;;;5.97;0.40;;;12.50;99.90;;;;;;5074385;28;20456;-68
2024/02/08 11:53:32;;;;;;;6.60;0.50;;;12.60;99.90;;;;;;5075300;28;20871;-69
2024/02/08 11:56:07;;;;;;;6.20;0.60;;;12.60;99.90;;;;;;5075512;28;20454;-66
2024/02/08 11:58:42;;;;;;;6.40;0.50;;;12.70;99.90;;;;;;5074928;28;20448;-67
2024/02/08 12:01:13;;;;;;;6.70;0.53;;;12.70;99.90;;;;;;5074376;28;20469;-68
2024/02/08 12:03:42;;;;;;;5.93;0.60;;;12.70;99.90;;;;;;5075993;28;20522;-67
2024/02/08 12:06:23;;;;;;;6.20;0.47;;;12.70;99.90;;;;;;5078508;28;20494;-68
2024/02/08 12:08:58;;;;;;;7.97;1.27;;;12.70;99.90;;;;;;5077094;28;20449;-68
2024/02/08 12:11:30;;;;;;;6.63;0.93;;;12.80;99.90;;;;;;5074174;28;20475;-68
2024/02/08 12:14:04;;;;;;;5.97;0.50;;;12.80;99.90;;;;;;5070166;28;20450;-67
2024/02/08 12:16:50;;;;;;;6.37;0.60;;;12.80;99.90;;;;;;5076595;28;21047;-67
2024/02/08 12:19:19;;;;;;;7.77;0.60;;;12.90;99.90;;;;;;5078212;28;20959;-68
2024/02/08 12:21:56;;;;;;;6.97;0.70;;;13.00;99.90;;;;;;5075420;28;20476;-67
2024/02/08 12:24:25;;;;;;;7.37;1.00;;;13.20;99.90;;;;;;5074608;28;20464;-67
2024/02/08 12:26:54;;;;;;;8.37;1.10;;;13.40;99.90;;;;;;5076327;28;20478;-67
2024/02/08 12:29:29;;;;;;;9.07;0.70;;;13.40;99.90;;;;;;5075505;28;20453;-68
2024/02/08 12:31:57;;;;;;;6.20;0.57;;;13.40;99.90;;;;;;5076369;28;20970;-67
2024/02/08 12:34:32;;;;;;;6.80;0.80;;;13.40;99.90;;;;;;5075994;28;20430;-66
2024/02/08 12:37:05;;;;;;;9.27;1.20;;;13.40;99.90;;;;;;5075064;28;20491;-67
2024/02/08 12:39:38;;;;;;;8.50;1.57;;;13.50;99.90;;;;;;5059719;28;20444;-67
2024/02/08 12:42:07;;;;;;;8.40;1.00;;;13.50;99.90;;;;;;5064721;28;20466;-67
2024/02/08 12:44:36;;;;;;;8.80;1.13;;;13.50;99.90;;;;;;5059357;28;20455;-67
2024/02/08 12:47:06;;;;;;;6.90;0.80;;;13.50;99.90;;;;;;5062942;28;21231;-67
2024/02/08 12:49:35;;;;;;;9.03;1.00;;;13.50;99.90;;;;;;5059858;28;20859;-67
2024/02/08 12:52:04;;;;;;;8.00;0.93;;;13.50;99.90;;;;;;5063739;28;20477;-67
2024/02/08 12:54:33;;;;;;;8.43;1.20;;;13.50;99.90;;;;;;5059999;28;20473;-67
2024/02/08 12:57:07;;;;;;;12.70;1.60;;;13.60;99.90;;;;;;5063015;28;20518;-67
2024/02/08 12:59:38;;;;;;;8.23;1.10;;;13.50;99.90;;;;;;5060311;28;20432;-66
2024/02/08 13:02:09;;;;;;;7.20;0.93;;;13.40;99.90;;;;;;5062090;28;21055;-67
2024/02/08 13:04:43;;;;;;;7.60;1.20;;;13.30;99.90;;;;;;5059024;28;20451;-67
2024/02/08 13:07:15;;;;;;;10.60;3.20;;;13.30;99.90;;;;;;5060808;28;20501;-67
2024/02/08 13:09:44;;;;;;;11.53;0.93;;;13.20;99.90;;;;;;5063063;28;20542;-67
2024/02/08 13:12:19;;;;;;;6.90;0.83;;;13.30;99.90;;;;;;5060190;28;20475;-67
2024/02/08 13:15:02;;;;;;;11.23;1.73;;;13.30;99.90;;;;;;5060053;28;20454;-67
2024/02/08 13:17:33;;;;;;;8.53;0.90;;;13.40;99.90;;;;;;5058407;28;20506;-67
2024/02/08 13:20:11;;;;;;;8.87;1.40;;;13.60;99.90;;;;;;5056450;28;20454;-67
2024/02/08 13:22:43;;;;;;;7.10;1.17;;;13.70;99.90;;;;;;5059006;28;21030;-68
2024/02/08 13:25:13;;;;;;;11.07;1.90;;;13.80;99.90;;;;;;5060392;28;20443;-67
2024/02/08 13:27:41;;;;;;;9.03;1.57;;;13.80;99.90;;;;;;5059174;28;20484;-67
2024/02/08 13:30:15;;;;;;;7.77;1.70;;;13.70;99.90;;;;;;5066003;28;20442;-68
2024/02/08 13:32:45;;;;;;;9.57;1.70;;;13.80;99.90;;;;;;5060326;28;20497;-66
2024/02/08 13:35:19;;;;;;;7.93;1.40;;;13.80;99.90;;;;;;5059924;28;20454;-69
2024/02/08 13:37:49;;;;;;;10.10;1.80;;;13.80;99.90;;;;;;5058849;28;20479;-66
2024/02/08 13:40:18;;;;;;;9.10;1.70;;;13.80;99.90;;;;;;5059510;28;20448;-67
2024/02/08 13:42:47;;;;;;;10.20;1.87;;;13.80;99.90;;;;;;5059393;28;20475;-68
2024/02/08 13:45:27;;;;;;;7.93;1.33;;;13.80;99.90;;;;;;5059026;28;20466;-68
2024/02/08 13:47:59;;;;;;;7.97;1.83;;;13.80;99.90;;;;;;5057117;28;20485;-67
2024/02/08 13:50:29;;;;;;;9.30;1.40;;;13.90;99.90;;;;;;5057497;28;20498;-66
2024/02/08 13:53:01;;;;;;;12.60;2.10;;;13.90;99.90;;;;;;5060364;28;20446;-67
2024/02/08 13:55:32;;;;;;;10.83;1.90;;;13.90;99.90;;;;;;5059298;28;20443;-67
2024/02/08 13:58:06;;;;;;;11.90;2.20;;;14.00;99.90;;;;;;5021227;28;20453;-67
2024/02/08 14:00:36;;;;;;;12.10;1.83;;;13.90;99.90;;;;;;5021965;28;20971;-67
2024/02/08 14:03:08;;;;;;;13.43;2.07;;;13.90;99.90;;;;;;5023555;28;20503;-67
2024/02/08 14:05:39;;;;;;;10.00;1.80;;;14.00;99.90;;;;;;5021260;28;20449;-67
2024/02/08 14:08:16;;;;;;;11.50;1.90;;;13.80;99.90;;;;;;5023653;28;20492;-67
2024/02/08 14:10:45;;;;;;;12.67;2.30;;;13.80;99.90;;;;;;5020225;28;20444;-67
2024/02/08 14:13:14;;;;;;;9.90;1.90;;;13.70;99.90;;;;;;5020579;28;21161;-67
2024/02/08 14:15:47;;;;;;;14.60;2.27;;;13.70;99.90;;;;;;5024929;28;20519;-66
2024/02/08 14:18:23;;;;;;;12.00;2.20;;;13.70;99.90;;;;;;5052895;28;20435;-67
2024/02/08 14:21:00;;;;;;;16.23;2.13;;;13.60;99.90;;;;;;5056408;28;20458;-67
2024/02/08 14:23:37;;;;;;;16.83;2.67;;;13.50;99.90;;;;;;5054312;28;20527;-67
2024/02/08 14:28:55;;;;;;;10.70;1.93;;;13.60;99.90;;;;;;5056575;28;20538;-67
2024/02/08 14:31:25;;;;;;;14.67;2.83;;;13.60;99.90;;;;;;5052517;28;20558;-67
2024/02/08 14:33:55;;;;;;;12.77;2.30;;;13.60;99.90;;;;;;5055001;28;21142;-68
2024/02/08 14:36:23;;;;;;;15.10;2.43;;;13.60;99.90;;;;;;5052492;28;20944;-68
2024/02/08 14:38:53;;;;;;;12.17;2.20;;;13.60;99.90;;;;;;5055991;28;20526;-67
2024/02/08 14:41:32;;;;;;;12.93;3.77;;;13.60;99.90;;;;;;5053474;28;20545;-66
2024/02/08 14:44:08;;;;;;;12.40;2.90;;;13.70;99.90;;;;;;5054170;28;20497;-66
2024/02/08 14:46:40;;;;;;;12.60;2.93;;;13.80;99.90;;;;;;5055380;28;20454;-68
2024/02/08 14:49:23;;;;;;;15.23;2.63;;;13.80;99.90;;;;;;5054251;28;20486;-69
2024/02/08 14:52:01;;;;;;;15.23;2.80;;;13.80;99.90;;;;;;5059147;28;20966;-68
2024/02/08 14:54:31;;;;;;;16.73;2.70;;;13.90;99.90;;;;;;5056861;28;20442;-67
2024/02/08 14:57:04;;;;;;;13.67;2.77;;;13.90;99.90;;;;;;5054784;28;20454;-66
2024/02/08 14:59:45;;;;;;;16.83;3.93;;;13.90;99.90;;;;;;5056049;28;20435;-67
2024/02/08 15:02:18;;;;;;;14.77;3.57;;;13.90;99.90;;;;;;5059519;28;20862;-67
2024/02/08 15:04:52;;;;;;;18.10;3.67;;;13.70;99.90;;;;;;5057106;28;20487;-68
2024/02/08 15:07:47;;;;;;;16.70;3.13;;;13.60;99.90;;;;;;5063859;28;20439;-67
2024/02/08 15:10:20;;;;;;;16.20;2.50;;;13.50;99.90;;;;;;5058420;28;20442;-67